القامشلي, سوريا

10:12 AM EET on وèلهبر 28, 2014 (GMT +0200)
Sirnak | Change Station
CLOSE
Current Station
Airport
Location: Sirnak,
Elevation: 0 ft
Nearby Weather Stations

Elev 0 ft 37.36 °N, 42.06 °E | Updated 22 minutes ago

Partly Cloudy
غائم جزئياً
48 °F
Feels Like 48 °F
N
4
ريح متغير ريح from WNW

هذا اليوم
High -- | Low -- °F
--% Chance of Precip.
Yesterday
High -- | Low -- °F
Precip. -- في
6:06 AM 3:59 PM
الهلال الأول, 38% visible
الضغط 30.18 في
وضوح الرؤية 6.2 أميال
سحابات Few 3000 ft
نقطة الندى 43 °F
الرطوبة 82%
Rainfall 0.00 في
عمق الثلج Not available.
الأشعة فوق البنفسجية 3 out of 12
Pollen Not available.
جودة الهواء Not available.
Flu Activity Not available.
METAR LTCV 280750Z 29003KT 260V320 9999 FEW030 09/06 Q1022

More Conditions Fewer Conditions

الضغط 30.18 في
وضوح الرؤية 6.2 أميال
سحابات Few 3000 ft
نقطة الندى 43 °F
الرطوبة 82%
Rainfall 0.00 في
عمق الثلج Not available.
الأشعة فوق البنفسجية 3 out of 12
Pollen Not available.
جودة الهواء Not available.
Flu Activity Not available.
METAR LTCV 280750Z 29003KT 260V320 9999 FEW030 09/06 Q1022

More Conditions Fewer Conditions

10-Day Weather Forecast

Almanac

علم الفلك

Nov. 28, 2014 Rise Set
Actual Time
Civil Twilight
Nautical Twilight
Astronomical Twilight
قمر
Length Of Visible Light
طول الیوم
Tomorrow will be .
, % of the Moon is Illuminated

Today's Extremes

Country Highs Country Lows

Community

WunderPhotos

Upload Photos

1,774,191 photos uploaded!

WunderBlogs® & News

Nearby

جودة الهواء

  جودة الهواء AQ Index Pollutant
Not available.

عمق الثلج

Station Depth Elevation

Earthquake Activity

City Distance Mag. Time & Date
Minimum magnitude displayed is 2.5.

Coastal Water Temperatures

مكان درجات الحرارة

Nearby Weather Stations